Time;durP1;ratioP1;P1;durP2;ratioP2;P2;SDS_P1;SDS_P2;PMS_P1;PMS_P2;Temp;Humidity;BMP_temperature;BMP_pressure;BME280_temperature;BME280_humidity;BME280_pressure;Samples;Min_cycle;Max_cycle;Signal;HPM_P1;HPM_P2
2022/03/20 00:01:52;;;;;;;8.47;4.80;;;7.40;99.90;;;;;;4992029;28;20215;-77
2022/03/20 00:04:20;;;;;;;6.80;4.60;;;7.40;99.90;;;;;;4984853;28;20199;-77
2022/03/20 00:06:47;;;;;;;6.70;4.23;;;7.30;99.90;;;;;;4984188;28;20212;-76
2022/03/20 00:09:14;;;;;;;7.97;4.90;;;7.30;99.90;;;;;;4984603;28;20231;-77
2022/03/20 00:11:41;;;;;;;8.93;4.90;;;7.40;99.90;;;;;;4984775;28;20238;-76
2022/03/20 00:14:07;;;;;;;8.63;5.07;;;7.40;99.90;;;;;;4984053;28;20515;-75
2022/03/20 00:16:34;;;;;;;8.87;5.03;;;7.40;99.90;;;;;;4984483;28;20208;-77
2022/03/20 00:19:02;;;;;;;7.77;5.33;;;7.30;99.90;;;;;;4984834;28;20219;-76
2022/03/20 00:21:31;;;;;;;7.97;5.00;;;7.30;99.90;;;;;;4984907;28;20200;-76
2022/03/20 00:23:58;;;;;;;8.73;5.40;;;7.20;99.90;;;;;;4988295;28;20204;-77
2022/03/20 00:26:24;;;;;;;8.23;4.80;;;7.20;99.90;;;;;;4987006;28;20203;-76
2022/03/20 00:28:51;;;;;;;6.57;5.10;;;7.20;99.90;;;;;;4987717;28;20272;-76
2022/03/20 00:31:18;;;;;;;9.40;5.10;;;7.20;99.90;;;;;;4988053;28;20282;-76
2022/03/20 00:33:45;;;;;;;9.00;5.30;;;7.20;99.90;;;;;;4987716;28;20534;-76
2022/03/20 00:36:11;;;;;;;7.43;5.07;;;7.20;99.90;;;;;;4987683;28;20204;-76
2022/03/20 00:38:40;;;;;;;7.17;5.73;;;7.20;99.90;;;;;;4987753;28;20200;-76
2022/03/20 00:41:06;;;;;;;9.33;6.50;;;7.20;99.90;;;;;;4987560;28;20238;-76
2022/03/20 00:43:33;;;;;;;9.93;6.43;;;7.10;99.90;;;;;;4987813;28;20207;-76
2022/03/20 00:46:00;;;;;;;7.77;5.77;;;7.10;99.90;;;;;;4988325;28;20196;-76
2022/03/20 00:48:27;;;;;;;9.03;6.87;;;7.00;99.90;;;;;;5017179;28;20630;-75
2022/03/20 00:50:53;;;;;;;9.80;6.53;;;7.00;99.90;;;;;;4995867;28;20227;-75
2022/03/20 00:53:20;;;;;;;8.30;6.40;;;7.00;99.90;;;;;;4987892;28;20597;-76
2022/03/20 00:55:48;;;;;;;9.73;5.97;;;6.90;99.90;;;;;;5006520;28;20238;-76
2022/03/20 00:58:15;;;;;;;10.40;6.87;;;7.00;99.90;;;;;;5007236;28;20676;-76
2022/03/20 01:00:42;;;;;;;7.50;6.37;;;7.00;99.90;;;;;;5007356;28;20196;-77
2022/03/20 01:03:09;;;;;;;9.77;6.40;;;6.90;99.90;;;;;;5006649;28;20238;-77
2022/03/20 01:05:36;;;;;;;9.10;6.43;;;7.00;99.90;;;;;;5007157;28;20245;-76
2022/03/20 01:08:02;;;;;;;10.53;6.10;;;6.90;99.90;;;;;;5006821;28;20270;-77
2022/03/20 01:10:29;;;;;;;8.70;6.03;;;6.90;99.90;;;;;;5006170;28;20630;-76
2022/03/20 01:12:58;;;;;;;9.67;6.43;;;6.80;99.90;;;;;;5007453;28;20207;-77
2022/03/20 01:15:24;;;;;;;10.63;6.50;;;6.80;99.90;;;;;;5006162;28;20218;-77
2022/03/20 01:17:51;;;;;;;8.33;6.23;;;6.80;99.90;;;;;;5006900;28;20211;-76
2022/03/20 01:20:18;;;;;;;10.47;6.97;;;6.80;99.90;;;;;;5006168;28;20214;-76
2022/03/20 01:22:45;;;;;;;10.17;6.20;;;6.80;99.90;;;;;;5005976;28;20663;-76
2022/03/20 01:25:12;;;;;;;9.20;6.20;;;6.70;99.90;;;;;;5006785;28;20215;-75
2022/03/20 01:27:39;;;;;;;8.37;6.53;;;6.70;99.90;;;;;;5006236;28;20203;-76
2022/03/20 01:30:09;;;;;;;10.30;6.67;;;6.60;99.90;;;;;;5006348;28;20821;-76
2022/03/20 01:32:35;;;;;;;10.60;7.40;;;6.60;99.90;;;;;;5006202;28;20269;-76
2022/03/20 01:35:03;;;;;;;13.43;7.47;;;6.60;99.90;;;;;;5005992;28;20211;-77
2022/03/20 01:37:30;;;;;;;11.27;7.20;;;6.60;99.90;;;;;;5006096;28;20204;-77
2022/03/20 01:39:57;;;;;;;11.37;7.00;;;6.60;99.90;;;;;;5006978;28;20231;-76
2022/03/20 01:42:24;;;;;;;8.50;6.90;;;6.60;99.90;;;;;;5006849;28;20211;-75
2022/03/20 01:44:52;;;;;;;8.90;5.97;;;6.60;99.90;;;;;;5006909;28;20203;-76
2022/03/20 01:47:20;;;;;;;12.10;7.40;;;6.60;99.90;;;;;;5011603;28;20210;-77
2022/03/20 01:49:47;;;;;;;8.30;6.00;;;6.60;99.90;;;;;;5015609;28;20261;-76
2022/03/20 01:52:24;;;;;;;7.80;6.00;;;6.50;99.90;;;;;;5015464;28;20242;-77
2022/03/20 01:54:51;;;;;;;8.30;6.50;;;6.50;99.90;;;;;;5015972;28;20206;-77
2022/03/20 01:57:20;;;;;;;8.67;6.33;;;6.50;99.90;;;;;;5019454;28;20262;-76
2022/03/20 01:59:47;;;;;;;8.07;6.00;;;6.50;99.90;;;;;;5005555;28;20269;-77
2022/03/20 02:02:15;;;;;;;8.67;5.27;;;6.50;99.90;;;;;;5006042;28;20529;-76
2022/03/20 02:04:43;;;;;;;8.63;5.87;;;6.40;99.90;;;;;;5005983;28;20214;-76
2022/03/20 02:07:10;;;;;;;9.63;5.73;;;6.40;99.90;;;;;;5006240;28;20211;-75
2022/03/20 02:09:38;;;;;;;9.10;5.50;;;6.40;99.90;;;;;;5005390;28;20222;-75
2022/03/20 02:12:06;;;;;;;9.63;6.63;;;6.40;99.90;;;;;;5004990;28;20736;-75
2022/03/20 02:14:33;;;;;;;11.07;6.50;;;6.40;99.90;;;;;;5005475;28;20207;-76
2022/03/20 02:17:00;;;;;;;9.43;6.07;;;6.40;99.90;;;;;;5006022;28;20206;-76
2022/03/20 02:19:28;;;;;;;7.57;5.30;;;6.30;99.90;;;;;;5005076;28;20199;-78
2022/03/20 02:21:57;;;;;;;9.93;5.63;;;6.30;99.90;;;;;;5005999;28;20199;-76
2022/03/20 02:24:36;;;;;;;11.30;6.30;;;6.30;99.90;;;;;;5005569;28;20206;-76
2022/03/20 02:27:04;;;;;;;8.13;5.53;;;6.30;99.90;;;;;;5005370;28;20231;-77
2022/03/20 02:29:31;;;;;;;8.70;5.90;;;6.20;99.90;;;;;;5005158;28;20281;-76
2022/03/20 02:31:59;;;;;;;9.30;6.13;;;6.30;99.90;;;;;;5005370;28;20223;-77
2022/03/20 02:34:26;;;;;;;8.03;5.70;;;6.20;99.90;;;;;;5004468;28;20207;-77
2022/03/20 02:36:53;;;;;;;9.73;6.13;;;6.20;99.90;;;;;;5005126;28;20207;-76
2022/03/20 02:39:22;;;;;;;8.97;6.03;;;6.20;99.90;;;;;;5005000;28;20231;-77
2022/03/20 02:41:50;;;;;;;8.80;6.40;;;6.20;99.90;;;;;;5005491;28;20207;-76
2022/03/20 02:44:17;;;;;;;10.50;6.47;;;6.10;99.90;;;;;;5005750;28;20237;-75
2022/03/20 02:46:44;;;;;;;10.27;6.73;;;6.10;99.90;;;;;;5016907;28;20210;-78
2022/03/20 02:49:11;;;;;;;11.30;6.77;;;6.10;99.90;;;;;;5037683;28;20205;-76
2022/03/20 02:51:39;;;;;;;11.43;6.73;;;6.10;99.90;;;;;;5005437;28;20326;-77
2022/03/20 02:54:06;;;;;;;10.60;6.50;;;6.10;99.90;;;;;;5005135;28;20210;-76
2022/03/20 02:56:34;;;;;;;11.83;6.50;;;6.10;99.90;;;;;;5004724;28;20231;-76
2022/03/20 02:59:02;;;;;;;11.33;6.87;;;6.00;99.90;;;;;;5004994;28;20612;-77
2022/03/20 03:01:29;;;;;;;8.57;6.57;;;6.00;99.90;;;;;;5004366;28;20496;-74
2022/03/20 03:03:56;;;;;;;7.20;6.07;;;5.90;99.90;;;;;;5004890;28;20207;-77
2022/03/20 03:06:23;;;;;;;15.87;8.13;;;6.00;99.90;;;;;;5004729;28;20210;-76
2022/03/20 03:11:35;;;;;;;10.80;6.70;;;5.80;99.90;;;;;;5004612;28;20293;-76
2022/03/20 03:15:18;;;;;;;8.33;6.70;;;5.80;99.90;;;;;;5004434;28;20219;-76
2022/03/20 03:16:49;;;;;;;14.50;7.07;;;5.80;99.90;;;;;;4996569;28;20199;-76
2022/03/20 03:19:15;;;;;;;10.87;7.43;;;5.80;99.90;;;;;;5004720;28;20273;-76
2022/03/20 03:21:43;;;;;;;10.63;7.17;;;5.80;99.90;;;;;;5005186;28;20206;-76
2022/03/20 03:24:09;;;;;;;13.47;7.40;;;5.80;99.90;;;;;;5004523;28;20195;-75
2022/03/20 03:26:38;;;;;;;8.87;6.10;;;5.70;99.90;;;;;;5004571;28;20211;-76
2022/03/20 03:29:05;;;;;;;11.07;7.70;;;5.70;99.90;;;;;;5005068;28;20207;-76
2022/03/20 03:31:32;;;;;;;11.07;7.67;;;5.60;99.90;;;;;;5004170;28;20910;-76
2022/03/20 03:36:43;;;;;;;15.20;9.37;;;5.60;99.90;;;;;;5004652;28;20186;-75
2022/03/20 03:39:10;;;;;;;14.10;8.00;;;5.70;99.90;;;;;;5005052;28;20210;-77
2022/03/20 03:41:38;;;;;;;14.70;9.00;;;5.70;99.90;;;;;;5005082;28;20210;-77
2022/03/20 03:44:06;;;;;;;12.63;8.70;;;5.70;99.90;;;;;;5015257;28;20866;-76
2022/03/20 03:46:32;;;;;;;11.90;9.10;;;5.70;99.90;;;;;;5013273;28;20697;-79
2022/03/20 03:49:00;;;;;;;14.57;8.77;;;5.60;99.90;;;;;;5019877;28;20215;-76
2022/03/20 03:51:26;;;;;;;11.27;8.93;;;5.70;99.90;;;;;;5011010;28;20222;-76
2022/03/20 03:53:53;;;;;;;17.57;9.63;;;5.60;99.90;;;;;;5017887;28;20611;-76
2022/03/20 03:56:20;;;;;;;14.77;9.60;;;5.50;99.90;;;;;;5016586;28;20722;-76
2022/03/20 03:58:48;;;;;;;13.87;10.17;;;5.50;99.90;;;;;;5010588;28;20667;-76
2022/03/20 04:01:15;;;;;;;14.83;10.37;;;5.50;99.90;;;;;;5008602;28;20295;-78
2022/03/20 04:03:42;;;;;;;15.80;10.43;;;5.40;99.90;;;;;;5008688;28;20211;-77
2022/03/20 04:06:09;;;;;;;18.13;10.23;;;5.50;99.90;;;;;;5007671;28;20214;-77
2022/03/20 04:08:36;;;;;;;14.33;9.93;;;5.40;99.90;;;;;;5008195;28;20230;-76
2022/03/20 04:11:04;;;;;;;14.63;9.47;;;5.30;99.90;;;;;;5008302;28;20237;-77
2022/03/20 04:13:31;;;;;;;14.20;9.73;;;5.30;99.90;;;;;;5007127;28;20227;-75
2022/03/20 04:15:59;;;;;;;15.20;10.30;;;5.30;99.90;;;;;;5008209;28;20207;-77
2022/03/20 04:18:25;;;;;;;14.53;9.37;;;5.30;99.90;;;;;;5007427;28;20208;-77
2022/03/20 04:20:53;;;;;;;14.63;9.60;;;5.30;99.90;;;;;;5007944;28;20380;-76
2022/03/20 04:26:04;;;;;;;13.87;10.50;;;5.30;99.90;;;;;;5027292;28;20190;-76
2022/03/20 04:28:30;;;;;;;14.57;10.33;;;5.40;99.90;;;;;;5011888;28;20214;-77
2022/03/20 04:30:59;;;;;;;14.70;9.83;;;5.30;99.90;;;;;;5007873;28;20207;-76
2022/03/20 04:33:27;;;;;;;17.73;10.63;;;5.30;99.90;;;;;;5006682;28;20230;-77
2022/03/20 04:35:54;;;;;;;14.43;9.97;;;5.20;99.90;;;;;;5007970;28;20214;-77
2022/03/20 04:38:21;;;;;;;17.50;10.47;;;5.20;99.90;;;;;;5007684;28;20524;-77
2022/03/20 04:40:48;;;;;;;13.83;10.70;;;5.20;99.90;;;;;;5006114;28;20203;-77
2022/03/20 04:43:17;;;;;;;17.87;10.90;;;5.20;99.90;;;;;;5007365;28;20650;-78
2022/03/20 04:45:44;;;;;;;13.97;10.13;;;5.20;99.90;;;;;;5007563;28;20269;-78
2022/03/20 04:59:08;;;;;;;17.20;10.40;;;5.10;99.90;;;;;;5007277;28;20598;-76
2022/03/20 05:01:37;;;;;;;17.90;11.07;;;5.10;99.90;;;;;;5006410;28;20218;-76
2022/03/20 05:04:06;;;;;;;18.30;9.93;;;5.10;99.90;;;;;;5007178;28;20204;-76
2022/03/20 05:06:33;;;;;;;14.67;10.57;;;5.00;99.90;;;;;;5006572;28;20226;-77
2022/03/20 05:14:24;;;;;;;15.13;10.37;;;5.00;99.90;;;;;;5007384;28;20234;-76
2022/03/20 05:16:52;;;;;;;17.47;10.53;;;5.00;99.90;;;;;;5006564;28;20942;-76
2022/03/20 05:19:21;;;;;;;13.83;11.03;;;4.90;99.90;;;;;;5006481;28;20249;-77
2022/03/20 05:21:48;;;;;;;17.80;10.20;;;4.90;99.90;;;;;;5006394;28;20208;-76
2022/03/20 05:24:16;;;;;;;16.23;10.90;;;4.90;99.90;;;;;;5006754;28;20217;-76
2022/03/20 05:26:43;;;;;;;17.37;11.07;;;4.90;99.90;;;;;;5006953;28;20204;-77
2022/03/20 05:29:09;;;;;;;14.43;10.00;;;4.90;99.90;;;;;;5013210;28;20251;-77
2022/03/20 05:31:37;;;;;;;15.63;10.90;;;4.80;99.90;;;;;;5026282;28;20206;-77
2022/03/20 05:34:03;;;;;;;15.40;10.57;;;4.90;99.90;;;;;;5014764;28;20251;-77
2022/03/20 05:36:32;;;;;;;15.57;10.83;;;4.80;99.90;;;;;;5008074;28;20595;-77
2022/03/20 05:38:59;;;;;;;20.73;10.80;;;4.70;99.90;;;;;;5015276;28;20215;-77
2022/03/20 05:44:11;;;;;;;15.73;11.13;;;4.70;99.90;;;;;;5015435;28;20681;-76
2022/03/20 05:46:38;;;;;;;16.17;11.50;;;4.70;99.90;;;;;;5026084;28;20312;-77
2022/03/20 05:49:05;;;;;;;16.07;11.20;;;4.70;99.90;;;;;;5022234;28;20222;-76
2022/03/20 05:51:34;;;;;;;17.97;10.77;;;4.70;99.90;;;;;;5025984;28;20202;-75
2022/03/20 05:54:01;;;;;;;15.87;11.53;;;4.70;99.90;;;;;;5006716;28;20241;-77
2022/03/20 05:59:12;;;;;;;16.20;11.27;;;4.60;99.90;;;;;;5006097;28;20334;-76
2022/03/20 06:01:39;;;;;;;16.77;10.47;;;4.60;99.90;;;;;;5006162;28;20517;-76
2022/03/20 06:04:07;;;;;;;14.13;10.33;;;4.60;99.90;;;;;;5005306;28;20741;-76
2022/03/20 06:06:36;;;;;;;17.67;11.27;;;4.60;99.90;;;;;;5005331;28;20951;-76
2022/03/20 06:09:03;;;;;;;17.77;11.77;;;4.60;99.90;;;;;;5005567;28;20215;-76
2022/03/20 06:11:30;;;;;;;16.80;11.33;;;4.60;99.90;;;;;;5004902;28;20207;-75
2022/03/20 06:13:57;;;;;;;15.20;10.90;;;4.60;99.90;;;;;;5005941;28;20231;-77
2022/03/20 06:16:24;;;;;;;18.27;12.27;;;4.60;99.90;;;;;;5005795;28;20211;-78
2022/03/20 06:18:50;;;;;;;17.40;12.13;;;4.70;99.90;;;;;;5005276;28;20199;-77
2022/03/20 06:21:17;;;;;;;18.40;12.73;;;4.70;99.90;;;;;;5005678;28;20195;-77
2022/03/20 06:23:46;;;;;;;18.43;12.03;;;4.70;99.90;;;;;;5005988;28;20233;-76
2022/03/20 06:26:13;;;;;;;16.93;11.80;;;4.70;99.90;;;;;;5005680;28;20208;-76
2022/03/20 06:28:40;;;;;;;17.73;12.33;;;4.70;99.90;;;;;;5005940;28;20194;-76
2022/03/20 06:31:09;;;;;;;19.60;12.30;;;4.70;99.90;;;;;;5005968;28;20611;-76
2022/03/20 06:33:36;;;;;;;20.73;12.67;;;4.80;99.90;;;;;;5005057;28;20231;-76
2022/03/20 06:36:04;;;;;;;18.43;12.63;;;4.80;99.90;;;;;;5005834;28;20298;-77
2022/03/20 06:38:31;;;;;;;19.63;13.37;;;4.80;99.90;;;;;;5004719;28;20218;-77
2022/03/20 06:41:00;;;;;;;18.70;12.37;;;4.80;99.90;;;;;;5004719;28;20218;-77
2022/03/20 06:43:28;;;;;;;19.93;12.50;;;4.80;99.90;;;;;;5005116;28;20204;-76
2022/03/20 06:45:55;;;;;;;19.30;13.63;;;4.90;99.90;;;;;;5007749;28;20288;-77
2022/03/20 06:48:22;;;;;;;19.87;13.20;;;4.90;99.90;;;;;;5032810;28;20197;-78
2022/03/20 06:50:49;;;;;;;16.30;11.77;;;4.90;99.90;;;;;;5044851;28;20844;-77
2022/03/20 06:53:17;;;;;;;17.00;12.70;;;5.00;99.90;;;;;;5044201;28;20221;-77
2022/03/20 06:55:45;;;;;;;18.40;13.47;;;5.00;99.90;;;;;;5011176;28;20374;-77
2022/03/20 06:58:14;;;;;;;16.50;12.27;;;5.10;99.90;;;;;;5005458;28;20222;-77
2022/03/20 07:00:41;;;;;;;18.87;13.27;;;5.10;99.90;;;;;;5003950;28;20199;-77
2022/03/20 07:03:09;;;;;;;21.23;12.97;;;5.10;99.90;;;;;;5005155;28;20403;-78
2022/03/20 07:05:36;;;;;;;21.03;12.83;;;5.10;99.90;;;;;;5004743;28;20215;-76
2022/03/20 07:08:05;;;;;;;19.30;12.23;;;5.20;99.90;;;;;;5004384;28;20588;-77
2022/03/20 07:10:32;;;;;;;21.50;13.23;;;5.30;99.90;;;;;;5004520;28;20666;-77
2022/03/20 07:15:43;;;;;;;19.03;13.53;;;5.30;99.90;;;;;;5003283;28;20202;-76
2022/03/20 07:18:10;;;;;;;17.03;13.20;;;5.40;99.90;;;;;;5005059;28;20211;-77
2022/03/20 07:20:38;;;;;;;20.27;13.17;;;5.40;99.90;;;;;;5004808;28;20206;-78
2022/03/20 07:23:09;;;;;;;21.20;14.67;;;5.50;99.90;;;;;;5004603;28;20223;-76
2022/03/20 07:31:06;;;;;;;17.83;12.67;;;5.60;99.90;;;;;;4999815;28;20203;-77
2022/03/20 07:33:34;;;;;;;19.40;12.43;;;5.70;99.90;;;;;;5008466;28;20230;-78
2022/03/20 07:36:00;;;;;;;19.37;13.23;;;5.80;99.90;;;;;;5008373;28;20290;-78
2022/03/20 07:38:28;;;;;;;19.03;13.80;;;5.80;99.90;;;;;;5013823;28;20215;-77
2022/03/20 07:40:55;;;;;;;18.27;13.07;;;5.90;99.90;;;;;;5016102;28;20198;-79
2022/03/20 07:43:22;;;;;;;20.90;14.00;;;5.90;99.90;;;;;;5017695;28;20217;-77
2022/03/20 07:45:50;;;;;;;18.67;13.03;;;5.90;99.90;;;;;;5009846;28;20245;-76
2022/03/20 07:48:21;;;;;;;17.30;13.60;;;6.00;99.90;;;;;;5029666;28;20205;-77
2022/03/20 07:50:50;;;;;;;17.73;12.87;;;6.00;99.90;;;;;;5028466;28;20246;-77
2022/03/20 07:53:17;;;;;;;20.10;13.60;;;6.10;99.90;;;;;;5007764;28;20239;-77
2022/03/20 07:55:44;;;;;;;18.07;13.27;;;6.10;99.90;;;;;;5007813;28;20250;-77
2022/03/20 07:58:12;;;;;;;17.27;13.70;;;6.20;99.90;;;;;;5007849;28;20207;-77
2022/03/20 08:00:39;;;;;;;18.90;13.73;;;6.20;99.90;;;;;;5020072;28;20496;-77
2022/03/20 08:03:06;;;;;;;20.20;14.20;;;6.20;99.90;;;;;;5024451;28;20317;-76
2022/03/20 08:05:34;;;;;;;21.73;14.07;;;6.20;99.90;;;;;;5007468;28;20211;-77
2022/03/20 08:08:02;;;;;;;19.93;14.77;;;6.20;99.90;;;;;;5013549;28;20221;-76
2022/03/20 08:10:29;;;;;;;20.97;14.17;;;6.20;99.90;;;;;;5021537;28;20211;-76
2022/03/20 08:12:56;;;;;;;20.47;14.10;;;6.20;99.90;;;;;;5007967;28;20628;-77
2022/03/20 08:15:24;;;;;;;24.80;14.43;;;6.30;99.90;;;;;;5018313;28;20213;-76
2022/03/20 08:17:52;;;;;;;20.03;15.03;;;6.20;99.90;;;;;;4988675;28;20650;-76
2022/03/20 08:20:19;;;;;;;22.93;14.73;;;6.30;99.90;;;;;;5018474;28;20606;-78
2022/03/20 08:22:48;;;;;;;19.23;14.03;;;6.30;99.90;;;;;;5014913;28;20314;-78
2022/03/20 08:25:14;;;;;;;18.97;13.80;;;6.30;99.90;;;;;;5007255;28;20235;-78
2022/03/20 08:27:46;;;;;;;18.20;14.17;;;6.40;99.90;;;;;;5008761;28;20208;-77
2022/03/20 08:30:15;;;;;;;20.53;13.50;;;6.40;99.90;;;;;;5007698;28;20196;-75
2022/03/20 08:32:42;;;;;;;22.17;15.43;;;6.30;99.90;;;;;;5007001;28;20229;-76
2022/03/20 08:35:13;;;;;;;19.13;14.23;;;6.50;99.90;;;;;;5007975;28;20213;-77
2022/03/20 08:37:43;;;;;;;21.83;14.33;;;6.50;99.90;;;;;;5005280;28;20230;-76
2022/03/20 08:40:15;;;;;;;18.97;14.00;;;6.50;99.90;;;;;;5006855;28;20297;-76
2022/03/20 08:42:44;;;;;;;22.40;14.20;;;6.70;99.90;;;;;;5027146;28;20268;-75
2022/03/20 08:45:12;;;;;;;17.90;13.73;;;6.70;99.90;;;;;;5027310;28;20260;-76
2022/03/20 08:47:40;;;;;;;23.40;15.33;;;6.80;99.90;;;;;;5022765;28;20213;-77
2022/03/20 08:50:08;;;;;;;18.33;14.30;;;6.90;99.90;;;;;;5023516;28;20292;-76
2022/03/20 08:52:36;;;;;;;18.53;14.57;;;7.00;99.90;;;;;;5007026;28;20203;-77
2022/03/20 08:55:09;;;;;;;22.17;14.97;;;7.10;99.90;;;;;;5013612;28;20941;-76
2022/03/20 08:57:39;;;;;;;17.83;14.33;;;7.10;99.90;;;;;;5022949;28;20341;-77
2022/03/20 09:00:08;;;;;;;21.73;14.83;;;7.10;99.90;;;;;;5006595;28;20211;-78
2022/03/20 09:02:34;;;;;;;21.37;14.93;;;7.30;99.90;;;;;;5011537;28;20813;-77
2022/03/20 09:05:02;;;;;;;19.30;14.13;;;7.40;99.90;;;;;;5008400;28;20607;-77
2022/03/20 09:07:29;;;;;;;19.63;14.13;;;7.40;99.90;;;;;;5006447;28;20207;-76
2022/03/20 09:09:56;;;;;;;21.03;15.73;;;7.40;99.90;;;;;;5006972;28;20230;-77
2022/03/20 09:12:23;;;;;;;20.93;16.10;;;7.40;99.90;;;;;;5007066;28;20207;-77
2022/03/20 09:14:51;;;;;;;19.83;15.03;;;7.40;99.90;;;;;;5006784;28;20258;-76
2022/03/20 09:20:03;;;;;;;18.03;14.47;;;7.40;99.90;;;;;;5021690;28;20210;-77
2022/03/20 09:22:30;;;;;;;23.10;15.87;;;7.30;99.90;;;;;;5012203;28;20223;-74
2022/03/20 09:24:57;;;;;;;18.97;14.77;;;7.30;99.90;;;;;;5008876;28;20276;-75
2022/03/20 09:27:23;;;;;;;23.00;14.63;;;7.30;99.90;;;;;;5026445;28;20855;-75
2022/03/20 09:29:52;;;;;;;20.17;15.13;;;7.30;99.90;;;;;;5024637;28;20199;-76
2022/03/20 09:32:20;;;;;;;22.67;15.20;;;7.40;99.90;;;;;;5011415;28;20214;-78
2022/03/20 09:34:47;;;;;;;21.30;14.73;;;7.40;99.90;;;;;;5011682;28;20773;-77
2022/03/20 09:37:14;;;;;;;22.73;15.27;;;7.40;99.90;;;;;;5014683;28;20697;-77
2022/03/20 09:39:40;;;;;;;23.23;15.90;;;7.40;99.90;;;;;;5014994;28;20436;-77
2022/03/20 09:42:08;;;;;;;28.13;16.17;;;7.40;99.90;;;;;;5015229;28;20891;-78
2022/03/20 09:44:38;;;;;;;20.80;15.33;;;7.50;99.90;;;;;;5026314;28;20263;-75
2022/03/20 09:47:11;;;;;;;20.17;15.50;;;7.70;99.90;;;;;;5023713;28;21122;-76
2022/03/20 09:49:38;;;;;;;20.27;14.93;;;7.90;99.90;;;;;;5005498;28;20527;-77
2022/03/20 09:52:06;;;;;;;21.43;15.03;;;7.90;99.90;;;;;;5006092;28;20779;-77
2022/03/20 09:54:33;;;;;;;19.73;15.03;;;7.90;99.90;;;;;;5003535;28;20254;-77
2022/03/20 09:57:04;;;;;;;24.50;15.97;;;7.80;99.90;;;;;;5004742;28;20879;-75
2022/03/20 09:59:31;;;;;;;23.00;16.87;;;7.70;99.90;;;;;;5005666;28;20271;-76
2022/03/20 10:02:03;;;;;;;22.33;16.37;;;7.70;99.90;;;;;;5005572;28;20222;-76
2022/03/20 10:04:34;;;;;;;23.40;16.50;;;7.70;99.90;;;;;;5004682;28;20246;-76
2022/03/20 10:07:01;;;;;;;21.80;15.67;;;7.70;99.90;;;;;;5004979;28;20215;-76
2022/03/20 10:09:29;;;;;;;23.83;16.10;;;7.80;99.90;;;;;;5012690;28;20234;-76
2022/03/20 10:11:57;;;;;;;21.57;15.70;;;7.80;99.90;;;;;;5037498;28;20885;-76
2022/03/20 10:14:26;;;;;;;22.97;15.30;;;7.90;99.90;;;;;;5022829;28;20321;-76
2022/03/20 10:16:56;;;;;;;23.10;16.40;;;7.80;99.90;;;;;;5005475;28;20218;-76
2022/03/20 10:19:31;;;;;;;22.43;16.40;;;7.70;99.90;;;;;;5005884;28;20741;-77
2022/03/20 10:22:01;;;;;;;23.77;16.73;;;7.70;99.90;;;;;;5005557;28;20226;-77
2022/03/20 10:24:29;;;;;;;22.43;16.83;;;7.70;99.90;;;;;;5004646;28;20516;-78
2022/03/20 10:27:13;;;;;;;23.07;16.10;;;7.70;99.90;;;;;;5005838;28;20305;-77
2022/03/20 10:29:48;;;;;;;20.97;16.33;;;7.70;99.90;;;;;;5005592;28;20217;-77
2022/03/20 10:32:15;;;;;;;23.43;16.60;;;7.70;99.90;;;;;;5005085;28;20210;-75
2022/03/20 10:34:52;;;;;;;20.40;15.20;;;7.70;99.90;;;;;;5005555;28;20263;-77
2022/03/20 10:37:21;;;;;;;23.87;16.73;;;7.80;99.90;;;;;;5005339;28;20214;-77
2022/03/20 10:39:48;;;;;;;19.83;15.90;;;7.80;99.90;;;;;;5004189;28;20218;-77
2022/03/20 10:42:18;;;;;;;21.13;16.37;;;7.90;99.90;;;;;;5004929;28;20207;-76
2022/03/20 10:44:45;;;;;;;23.33;15.90;;;7.90;99.90;;;;;;5004296;28;20561;-77
2022/03/20 10:47:15;;;;;;;23.47;16.73;;;7.90;99.90;;;;;;5008521;28;20206;-76
2022/03/20 10:49:51;;;;;;;18.93;15.43;;;7.90;99.90;;;;;;5035601;28;20241;-76
2022/03/20 10:52:22;;;;;;;22.50;16.13;;;8.00;99.90;;;;;;5013566;28;20215;-76
2022/03/20 10:54:53;;;;;;;22.80;16.20;;;8.30;99.90;;;;;;5004684;28;20239;-76
2022/03/20 10:57:20;;;;;;;23.73;17.17;;;8.50;99.90;;;;;;5004733;28;20313;-76
2022/03/20 10:59:58;;;;;;;21.57;16.53;;;8.80;99.90;;;;;;5003769;28;20215;-76
2022/03/20 11:02:26;;;;;;;20.07;15.10;;;9.10;99.90;;;;;;5022356;28;20708;-75
2022/03/20 11:04:53;;;;;;;21.73;17.00;;;9.40;99.90;;;;;;5022605;28;20537;-76
2022/03/20 11:07:23;;;;;;;21.53;16.40;;;9.70;99.90;;;;;;5020656;28;20218;-77
2022/03/20 11:09:51;;;;;;;20.57;17.03;;;9.90;99.90;;;;;;5010766;28;20319;-76
2022/03/20 11:12:22;;;;;;;22.93;16.23;;;10.10;99.90;;;;;;5003236;28;20199;-77
2022/03/20 11:14:50;;;;;;;22.10;16.83;;;10.10;99.90;;;;;;5004639;28;20227;-77
2022/03/20 11:17:22;;;;;;;22.30;17.30;;;10.10;99.90;;;;;;5004464;28;20206;-77
2022/03/20 11:19:52;;;;;;;24.17;18.00;;;10.00;99.90;;;;;;5004098;28;20230;-78
2022/03/20 11:22:22;;;;;;;22.03;15.90;;;10.00;99.90;;;;;;5004809;28;20199;-77
2022/03/20 11:24:51;;;;;;;22.03;17.27;;;10.00;99.90;;;;;;5005663;28;20208;-77
2022/03/20 11:27:24;;;;;;;22.03;16.93;;;9.70;99.90;;;;;;5014688;28;20215;-77
2022/03/20 11:29:56;;;;;;;24.53;16.87;;;9.60;99.90;;;;;;5011575;28;20264;-76
2022/03/20 11:32:23;;;;;;;21.20;17.17;;;9.60;99.90;;;;;;5014382;28;20981;-77
2022/03/20 11:34:51;;;;;;;26.17;17.63;;;9.50;99.90;;;;;;5011899;28;20675;-78
2022/03/20 11:37:18;;;;;;;25.33;18.27;;;9.40;99.90;;;;;;5004170;28;20207;-78
2022/03/20 11:40:11;;;;;;;21.20;16.53;;;9.30;99.90;;;;;;5022785;28;20206;-76
2022/03/20 11:42:39;;;;;;;23.40;17.27;;;9.20;99.90;;;;;;5011563;28;20211;-76
2022/03/20 11:45:16;;;;;;;21.73;17.17;;;9.00;99.90;;;;;;5005011;28;20282;-78
2022/03/20 11:47:46;;;;;;;24.23;18.43;;;9.00;99.90;;;;;;5010209;28;20211;-77
2022/03/20 11:50:40;;;;;;;29.23;19.30;;;8.90;99.90;;;;;;5003743;28;20214;-77
2022/03/20 11:53:09;;;;;;;21.53;16.40;;;8.80;99.90;;;;;;5004257;28;20206;-77
2022/03/20 11:55:40;;;;;;;21.47;17.37;;;8.70;99.90;;;;;;5003535;28;20234;-76
2022/03/20 11:58:12;;;;;;;21.90;17.87;;;8.70;99.90;;;;;;5004771;28;20202;-76
2022/03/20 12:00:41;;;;;;;25.30;18.13;;;8.60;99.90;;;;;;5004712;28;20620;-76
2022/03/20 12:03:44;;;;;;;23.20;17.23;;;8.50;99.90;;;;;;5003784;28;20214;-77
2022/03/20 12:06:47;;;;;;;23.67;18.17;;;8.60;99.90;;;;;;5010583;28;20211;-76
2022/03/20 12:09:48;;;;;;;26.77;18.70;;;8.70;99.90;;;;;;5022980;28;20226;-79
2022/03/20 12:12:34;;;;;;;24.17;18.73;;;8.60;99.90;;;;;;4967333;28;20218;-76
2022/03/20 12:15:08;;;;;;;23.57;19.33;;;8.60;99.90;;;;;;5004145;28;20223;-77
2022/03/20 12:17:57;;;;;;;28.60;20.47;;;8.70;99.90;;;;;;5003445;28;20514;-78
2022/03/20 12:20:51;;;;;;;26.90;20.47;;;8.80;99.90;;;;;;5007582;28;20239;-75
2022/03/20 12:23:39;;;;;;;27.37;21.03;;;8.90;99.90;;;;;;5007971;28;20207;-76
2022/03/20 12:26:34;;;;;;;25.80;19.77;;;8.90;99.90;;;;;;5008175;28;20214;-75
2022/03/20 12:29:35;;;;;;;28.00;20.83;;;8.90;99.90;;;;;;5008208;28;20207;-76
2022/03/20 12:32:03;;;;;;;26.83;20.17;;;8.90;99.90;;;;;;5007703;28;20210;-77
2022/03/20 12:34:31;;;;;;;26.40;20.17;;;9.10;99.90;;;;;;5007186;28;20227;-78
2022/03/20 12:37:31;;;;;;;28.63;20.57;;;9.20;99.90;;;;;;5027582;28;20218;-77
2022/03/20 12:40:07;;;;;;;25.30;19.03;;;9.30;99.90;;;;;;5027340;28;20743;-77
2022/03/20 12:42:36;;;;;;;25.23;19.80;;;9.40;99.90;;;;;;5009821;28;20211;-76
2022/03/20 12:45:06;;;;;;;27.43;20.60;;;9.40;99.90;;;;;;5007045;28;20204;-76
2022/03/20 12:47:33;;;;;;;28.03;20.47;;;9.50;99.90;;;;;;5016993;28;20218;-76
2022/03/20 12:50:05;;;;;;;28.23;21.10;;;9.60;99.90;;;;;;5047833;28;20202;-77
2022/03/20 12:52:34;;;;;;;28.00;21.30;;;9.70;99.90;;;;;;5039410;28;20199;-76
2022/03/20 12:55:05;;;;;;;27.30;19.97;;;9.70;99.90;;;;;;5006974;28;20678;-77
2022/03/20 12:57:42;;;;;;;25.47;19.67;;;9.70;99.90;;;;;;5007145;28;20243;-77
2022/03/20 13:00:13;;;;;;;25.50;20.20;;;9.60;99.90;;;;;;5006543;28;20214;-77
2022/03/20 13:03:06;;;;;;;24.87;20.03;;;9.70;99.90;;;;;;5007475;28;20296;-77
2022/03/20 13:05:34;;;;;;;28.87;21.77;;;9.80;99.90;;;;;;5006847;28;20245;-77
2022/03/20 13:08:01;;;;;;;24.50;19.50;;;9.60;99.90;;;;;;5005769;28;20223;-77
2022/03/20 13:10:34;;;;;;;23.83;19.90;;;9.70;99.90;;;;;;5007256;28;20195;-77
2022/03/20 13:13:02;;;;;;;28.27;22.03;;;9.70;99.90;;;;;;5006979;28;20224;-77
2022/03/20 13:15:32;;;;;;;28.33;23.17;;;9.70;99.90;;;;;;5010113;28;20900;-77
2022/03/20 13:18:01;;;;;;;25.63;20.50;;;9.70;99.90;;;;;;5017447;28;20202;-77
2022/03/20 13:20:30;;;;;;;30.67;21.13;;;9.80;99.90;;;;;;5013766;28;20206;-76
2022/03/20 13:22:58;;;;;;;28.10;20.40;;;9.90;99.90;;;;;;5013018;28;20698;-76
2022/03/20 13:25:27;;;;;;;26.57;19.70;;;10.10;99.90;;;;;;5019622;28;20210;-76
2022/03/20 13:27:58;;;;;;;26.97;20.57;;;10.30;99.90;;;;;;5010013;28;20227;-76
2022/03/20 13:30:35;;;;;;;28.10;22.03;;;10.50;99.90;;;;;;5005522;28;20689;-76
2022/03/20 13:33:02;;;;;;;26.70;20.87;;;10.50;99.90;;;;;;5006394;28;20222;-77